Time;durP1;ratioP1;P1;durP2;ratioP2;P2;SDS_P1;SDS_P2;PMS_P1;PMS_P2;Temp;Humidity;BMP_temperature;BMP_pressure;BME280_temperature;BME280_humidity;BME280_pressure;Samples;Min_cycle;Max_cycle;Signal;HPM_P1;HPM_P2
2022/07/12 00:00:12;;;;;;;5.00;4.50;;;15.70;99.90;;;;;;4992646;28;20439;-91
2022/07/12 00:02:38;;;;;;;5.43;4.90;;;15.50;99.90;;;;;;4990463;28;20232;-91
2022/07/12 00:05:04;;;;;;;10.27;4.80;;;15.40;99.90;;;;;;4985012;28;20774;-90
2022/07/12 00:07:30;;;;;;;5.20;4.70;;;15.40;99.90;;;;;;4979801;28;20786;-89
2022/07/12 00:09:56;;;;;;;5.00;4.47;;;15.60;99.90;;;;;;4982757;28;21088;-90
2022/07/12 00:12:21;;;;;;;5.60;4.17;;;15.30;99.90;;;;;;4984323;28;20524;-91
2022/07/12 00:14:48;;;;;;;5.47;4.97;;;15.30;99.90;;;;;;4989808;28;20439;-90
2022/07/12 00:17:13;;;;;;;5.60;5.10;;;15.20;99.90;;;;;;4985302;28;20771;-90
2022/07/12 00:19:39;;;;;;;6.10;5.50;;;15.10;99.90;;;;;;4988057;28;20454;-91
2022/07/12 00:22:04;;;;;;;5.43;5.03;;;15.20;99.90;;;;;;4987318;28;20173;-91
2022/07/12 00:24:30;;;;;;;7.20;5.37;;;15.20;99.90;;;;;;5005876;28;20249;-90
2022/07/12 00:26:55;;;;;;;6.20;5.50;;;15.30;99.90;;;;;;5010986;28;20194;-91
2022/07/12 00:29:22;;;;;;;6.40;5.80;;;14.90;99.90;;;;;;5012566;28;20169;-91
2022/07/12 00:31:47;;;;;;;7.73;5.63;;;14.70;99.90;;;;;;5004978;28;20247;-91
2022/07/12 00:34:13;;;;;;;5.67;5.27;;;14.90;99.90;;;;;;4983357;28;20471;-91
2022/07/12 00:36:38;;;;;;;6.30;5.70;;;15.00;99.90;;;;;;4984595;28;20193;-89
2022/07/12 00:39:04;;;;;;;6.23;5.47;;;14.70;99.90;;;;;;4985312;28;20255;-90
2022/07/12 00:41:29;;;;;;;6.53;6.03;;;14.70;99.90;;;;;;4987858;28;20276;-90
2022/07/12 00:43:55;;;;;;;5.90;5.40;;;14.90;99.90;;;;;;4987725;28;20681;-91
2022/07/12 00:46:24;;;;;;;5.97;5.50;;;15.20;99.90;;;;;;4981979;28;20221;-91
2022/07/12 00:48:50;;;;;;;6.13;5.53;;;15.20;99.90;;;;;;4985170;28;20184;-90
2022/07/12 00:51:18;;;;;;;9.40;6.10;;;15.30;99.90;;;;;;4985408;28;20467;-91
2022/07/12 00:53:44;;;;;;;6.07;5.47;;;15.20;99.90;;;;;;4988778;28;20452;-92
2022/07/12 00:56:09;;;;;;;6.07;5.57;;;15.10;99.90;;;;;;4992471;28;20507;-92
2022/07/12 00:58:40;;;;;;;5.90;5.40;;;15.00;99.90;;;;;;4992090;28;20894;-91
2022/07/12 01:01:05;;;;;;;5.90;5.50;;;15.10;99.90;;;;;;4989538;28;20188;-92
2022/07/12 01:03:31;;;;;;;5.90;5.40;;;15.30;99.90;;;;;;4988270;28;20467;-92
2022/07/12 01:05:57;;;;;;;6.47;4.80;;;15.20;99.90;;;;;;4992517;28;20268;-91
2022/07/12 01:08:23;;;;;;;5.43;5.03;;;15.30;99.90;;;;;;4997185;28;20211;-90
2022/07/12 01:10:49;;;;;;;5.83;5.03;;;15.20;99.90;;;;;;5032052;28;20468;-91
2022/07/12 01:13:16;;;;;;;5.80;5.20;;;15.20;99.90;;;;;;4997723;28;20439;-91
2022/07/12 01:15:42;;;;;;;5.50;4.97;;;15.20;99.90;;;;;;4992727;28;20440;-92
2022/07/12 01:18:09;;;;;;;5.40;4.90;;;15.20;99.90;;;;;;4988981;28;20476;-92
2022/07/12 01:20:35;;;;;;;5.73;5.23;;;15.20;99.90;;;;;;4990525;28;20444;-92
2022/07/12 01:23:02;;;;;;;5.10;4.70;;;15.10;99.90;;;;;;4991748;28;20439;-92
2022/07/12 01:25:28;;;;;;;6.07;5.23;;;15.20;99.90;;;;;;4994385;28;20184;-93
2022/07/12 01:27:54;;;;;;;5.40;5.00;;;15.10;99.90;;;;;;4986064;28;20455;-92
2022/07/12 01:30:20;;;;;;;5.83;5.33;;;15.00;99.90;;;;;;4991308;28;20193;-91
2022/07/12 01:32:46;;;;;;;5.73;5.13;;;15.00;99.90;;;;;;5004274;28;20518;-92
2022/07/12 01:35:12;;;;;;;5.10;4.70;;;15.00;99.90;;;;;;4988081;28;20865;-92
2022/07/12 01:37:38;;;;;;;5.60;5.10;;;14.90;99.90;;;;;;4989855;28;20260;-92
2022/07/12 01:40:06;;;;;;;5.60;5.10;;;14.80;99.90;;;;;;4994832;28;20193;-92
2022/07/12 01:42:33;;;;;;;6.77;5.60;;;14.70;99.90;;;;;;4985620;28;20526;-92
2022/07/12 01:44:59;;;;;;;6.17;5.67;;;14.70;99.90;;;;;;5017781;28;20450;-90
2022/07/12 01:47:29;;;;;;;6.00;5.53;;;14.70;99.90;;;;;;4983974;28;20441;-91
2022/07/12 01:49:55;;;;;;;6.10;5.60;;;14.60;99.90;;;;;;4989030;28;20243;-91
2022/07/12 01:52:21;;;;;;;10.53;5.67;;;14.60;99.90;;;;;;4982400;28;20526;-93
2022/07/12 01:54:47;;;;;;;5.43;5.03;;;14.50;99.90;;;;;;4987574;28;20978;-91
2022/07/12 01:57:13;;;;;;;6.33;5.83;;;14.50;99.90;;;;;;4989282;28;20447;-92
2022/07/12 01:59:39;;;;;;;5.33;4.93;;;14.50;99.90;;;;;;4988259;28;20471;-92
2022/07/12 02:02:05;;;;;;;5.77;5.27;;;14.70;99.90;;;;;;4986136;28;20531;-92
2022/07/12 02:04:31;;;;;;;5.27;4.77;;;14.50;99.90;;;;;;4988377;28;20543;-91
2022/07/12 02:06:57;;;;;;;5.60;5.10;;;14.50;99.90;;;;;;4984988;28;20204;-92
2022/07/12 02:09:23;;;;;;;5.13;4.37;;;14.50;99.90;;;;;;4987381;28;20432;-91
2022/07/12 02:11:48;;;;;;;5.77;5.27;;;14.50;99.90;;;;;;5004246;28;20222;-92
2022/07/12 02:14:15;;;;;;;7.37;5.30;;;14.30;99.90;;;;;;4991178;28;20447;-92
2022/07/12 02:16:41;;;;;;;6.10;5.50;;;14.60;99.90;;;;;;5003701;28;20184;-93
2022/07/12 02:19:23;;;;;;;5.60;5.00;;;14.50;99.90;;;;;;4985584;28;20534;-92
2022/07/12 02:21:49;;;;;;;6.20;5.70;;;14.40;99.90;;;;;;4989432;28;20559;-92
2022/07/12 02:24:30;;;;;;;6.00;5.43;;;14.50;99.90;;;;;;4986938;28;20449;-93
2022/07/12 02:26:56;;;;;;;6.90;5.87;;;14.40;99.90;;;;;;4988120;28;20796;-92
2022/07/12 02:29:21;;;;;;;5.47;4.97;;;14.30;99.90;;;;;;4984257;28;20445;-92
2022/07/12 02:31:47;;;;;;;5.87;5.37;;;14.30;99.90;;;;;;4989065;28;20181;-93
2022/07/12 02:34:12;;;;;;;10.70;5.60;;;14.40;99.90;;;;;;4989197;28;20184;-92
2022/07/12 02:36:38;;;;;;;6.87;5.03;;;14.40;99.90;;;;;;4988150;28;20184;-93
2022/07/12 02:39:04;;;;;;;6.30;4.53;;;14.30;99.90;;;;;;4985070;28;21350;-92
2022/07/12 02:41:30;;;;;;;9.07;5.60;;;14.20;99.90;;;;;;4987404;28;20223;-90
2022/07/12 02:43:57;;;;;;;5.90;5.40;;;14.00;99.90;;;;;;4986233;28;20816;-93
2022/07/12 02:46:23;;;;;;;9.53;5.60;;;13.90;99.90;;;;;;4987438;28;20436;-94
2022/07/12 02:48:53;;;;;;;7.10;5.63;;;13.80;99.90;;;;;;4984486;28;20436;-93
2022/07/12 02:51:19;;;;;;;6.20;5.03;;;13.70;99.90;;;;;;4990073;28;20428;-92
2022/07/12 02:53:44;;;;;;;5.67;5.27;;;13.70;99.90;;;;;;4988340;28;20448;-91
2022/07/12 02:56:11;;;;;;;5.97;5.07;;;13.80;99.90;;;;;;5002651;28;20180;-93
2022/07/12 02:58:38;;;;;;;5.67;5.17;;;14.10;99.90;;;;;;4989775;28;20311;-92
2022/07/12 03:01:17;;;;;;;5.13;4.73;;;13.90;99.90;;;;;;4997508;28;20499;-93
2022/07/12 03:03:43;;;;;;;7.07;6.00;;;13.90;99.90;;;;;;4987233;28;20471;-93
2022/07/12 03:06:08;;;;;;;6.70;5.47;;;14.00;99.90;;;;;;4986749;28;20264;-93
2022/07/12 03:08:34;;;;;;;6.07;5.57;;;14.00;99.90;;;;;;4990214;28;20326;-93
2022/07/12 03:10:59;;;;;;;5.83;5.33;;;14.10;99.90;;;;;;4989696;28;20186;-93
2022/07/12 03:13:25;;;;;;;5.50;5.00;;;14.00;99.90;;;;;;4992960;28;20283;-93
2022/07/12 03:15:51;;;;;;;6.13;5.63;;;14.10;99.90;;;;;;4984304;28;20294;-94
2022/07/12 03:18:17;;;;;;;6.80;6.27;;;14.40;99.90;;;;;;5004705;28;20228;-92
2022/07/12 03:20:43;;;;;;;7.07;6.47;;;14.30;99.90;;;;;;4990948;28;20471;-93
2022/07/12 03:23:09;;;;;;;6.53;5.57;;;14.30;99.90;;;;;;4991807;28;20493;-93
2022/07/12 03:25:35;;;;;;;9.63;7.10;;;14.30;99.90;;;;;;4985871;28;20440;-92
2022/07/12 03:28:00;;;;;;;6.50;5.93;;;14.40;99.90;;;;;;4982779;28;20217;-93
2022/07/12 03:30:27;;;;;;;6.33;5.77;;;14.50;99.90;;;;;;4983799;28;20483;-92
2022/07/12 03:32:52;;;;;;;7.20;6.50;;;14.50;99.90;;;;;;4988932;28;20239;-92
2022/07/12 03:35:18;;;;;;;8.70;5.33;;;14.60;99.90;;;;;;4989102;28;20447;-92
2022/07/12 03:37:50;;;;;;;7.37;6.53;;;14.40;99.90;;;;;;4985034;28;20219;-92
2022/07/12 03:40:18;;;;;;;6.43;5.87;;;14.50;99.90;;;;;;4986355;28;20179;-92
2022/07/12 03:42:44;;;;;;;5.80;5.40;;;14.40;99.90;;;;;;4986450;28;20432;-91
2022/07/12 03:45:11;;;;;;;6.23;5.70;;;14.40;99.90;;;;;;4986503;28;20510;-91
2022/07/12 03:47:39;;;;;;;7.37;5.87;;;14.40;99.90;;;;;;4980412;28;20432;-91
2022/07/12 03:50:06;;;;;;;6.10;5.50;;;14.60;99.90;;;;;;4988083;28;20440;-92
2022/07/12 03:52:33;;;;;;;5.97;5.53;;;14.40;99.90;;;;;;5001128;28;20468;-90
2022/07/12 03:54:59;;;;;;;6.00;5.50;;;14.40;99.90;;;;;;4986291;28;21009;-91
2022/07/12 03:57:26;;;;;;;7.10;5.87;;;14.40;99.90;;;;;;4988264;28;20527;-91
2022/07/12 04:00:04;;;;;;;6.60;6.00;;;14.50;99.90;;;;;;4984695;28;20448;-93
2022/07/12 04:02:30;;;;;;;6.17;5.67;;;14.40;99.90;;;;;;4980487;28;20809;-91
2022/07/12 04:04:56;;;;;;;5.77;5.27;;;14.40;99.90;;;;;;4991051;28;20444;-90
2022/07/12 04:07:22;;;;;;;8.67;5.90;;;14.30;99.90;;;;;;4984339;28;20181;-92
2022/07/12 04:09:48;;;;;;;8.60;5.40;;;14.10;99.90;;;;;;4988997;28;20532;-92
2022/07/12 04:12:15;;;;;;;5.97;5.40;;;14.00;99.90;;;;;;4992124;28;20189;-90
2022/07/12 04:14:42;;;;;;;6.40;5.87;;;13.90;99.90;;;;;;5002084;28;20455;-89
2022/07/12 04:17:10;;;;;;;6.37;5.83;;;14.10;99.90;;;;;;5018643;28;20185;-91
2022/07/12 04:19:51;;;;;;;6.40;5.67;;;14.00;99.90;;;;;;4988672;28;20479;-91
2022/07/12 04:22:17;;;;;;;6.50;5.90;;;14.00;99.90;;;;;;4983117;28;21063;-91
2022/07/12 04:24:42;;;;;;;6.70;6.10;;;14.00;99.90;;;;;;4988797;28;21175;-95
2022/07/12 04:27:08;;;;;;;6.47;5.80;;;13.90;99.90;;;;;;5010805;28;20646;-95
2022/07/12 04:29:34;;;;;;;7.13;6.23;;;13.90;99.90;;;;;;5001638;28;20177;-95
2022/07/12 04:31:59;;;;;;;7.37;6.40;;;13.90;99.90;;;;;;4995887;28;20184;-95
2022/07/12 04:34:25;;;;;;;6.90;5.93;;;14.00;99.90;;;;;;4987350;28;20177;-96
2022/07/12 04:36:50;;;;;;;6.60;5.77;;;14.00;99.90;;;;;;4991157;28;20182;-94
2022/07/12 04:39:16;;;;;;;6.40;5.83;;;14.10;99.90;;;;;;4994975;28;20205;-96
2022/07/12 04:41:42;;;;;;;6.40;5.90;;;14.20;99.90;;;;;;4992977;28;20583;-95
2022/07/12 04:44:08;;;;;;;6.80;6.07;;;14.30;99.90;;;;;;5022918;28;20193;-94
2022/07/12 04:46:33;;;;;;;6.57;6.07;;;14.40;99.90;;;;;;5011056;28;20490;-95
2022/07/12 04:49:00;;;;;;;6.93;6.10;;;14.50;99.90;;;;;;5013784;28;20574;-95
2022/07/12 04:51:25;;;;;;;7.00;6.40;;;14.60;99.90;;;;;;5001399;28;20189;-95
2022/07/12 04:53:51;;;;;;;6.43;5.83;;;14.60;99.90;;;;;;4997608;28;20447;-95
2022/07/12 04:56:17;;;;;;;7.33;6.63;;;14.70;99.90;;;;;;4995401;28;20670;-95
2022/07/12 04:58:42;;;;;;;10.13;6.67;;;14.70;99.90;;;;;;4996784;28;20479;-96
2022/07/12 05:01:11;;;;;;;7.10;5.67;;;14.60;99.90;;;;;;4990204;28;20188;-95
2022/07/12 05:03:36;;;;;;;6.93;6.20;;;14.70;99.90;;;;;;4997900;28;20663;-96
2022/07/12 05:06:02;;;;;;;7.10;6.50;;;15.00;99.90;;;;;;5026810;28;20440;-96
2022/07/12 05:08:28;;;;;;;7.93;7.23;;;15.10;99.90;;;;;;4991277;28;20185;-96
2022/07/12 05:10:53;;;;;;;7.70;6.90;;;15.20;99.90;;;;;;4992354;28;20178;-96
2022/07/12 05:13:19;;;;;;;7.03;6.43;;;15.40;99.90;;;;;;4987962;28;20279;-96
2022/07/12 05:15:45;;;;;;;7.60;7.00;;;15.50;99.90;;;;;;4988786;28;20181;-94
2022/07/12 05:18:10;;;;;;;6.90;6.13;;;15.60;99.90;;;;;;4989186;28;20482;-96
2022/07/12 05:20:36;;;;;;;9.30;6.90;;;15.90;99.90;;;;;;4992851;28;20181;-96
2022/07/12 05:23:02;;;;;;;6.80;6.07;;;16.00;99.90;;;;;;4993333;28;20173;-96
2022/07/12 05:25:27;;;;;;;6.43;5.90;;;16.00;99.90;;;;;;4990309;28;20897;-96
2022/07/12 05:27:53;;;;;;;6.70;6.10;;;16.00;99.90;;;;;;5011444;28;20267;-93
2022/07/12 05:30:18;;;;;;;7.07;6.37;;;16.00;99.90;;;;;;4988942;28;20263;-95
2022/07/12 05:32:44;;;;;;;7.00;6.40;;;16.40;99.90;;;;;;5002394;28;20526;-95
2022/07/12 05:35:11;;;;;;;6.90;6.30;;;16.20;99.90;;;;;;4991876;28;20642;-94
2022/07/12 05:37:48;;;;;;;7.93;7.20;;;16.40;99.90;;;;;;4993044;28;20181;-94
2022/07/12 05:40:20;;;;;;;7.10;6.50;;;16.50;99.90;;;;;;4998337;28;20494;-90
2022/07/12 05:42:46;;;;;;;7.50;6.40;;;16.50;99.90;;;;;;5004093;28;20435;-92
2022/07/12 05:45:12;;;;;;;8.03;7.23;;;16.50;99.90;;;;;;4985684;28;20855;-91
2022/07/12 05:47:38;;;;;;;8.13;6.73;;;16.60;99.90;;;;;;4991076;28;20208;-92
2022/07/12 05:50:04;;;;;;;7.23;6.53;;;16.60;99.90;;;;;;4993862;28;20181;-95
2022/07/12 05:55:14;;;;;;;8.30;7.57;;;16.50;99.90;;;;;;5004129;28;20462;-92
2022/07/12 05:57:56;;;;;;;8.73;8.03;;;16.50;99.90;;;;;;4992152;28;20495;-94
2022/07/12 06:00:22;;;;;;;7.37;6.77;;;16.50;99.90;;;;;;4990062;28;20185;-90
2022/07/12 06:02:47;;;;;;;7.30;6.60;;;16.70;99.90;;;;;;4990922;28;20450;-91
2022/07/12 06:05:16;;;;;;;7.50;6.90;;;16.70;99.90;;;;;;4986366;28;20770;-94
2022/07/12 06:07:41;;;;;;;7.87;7.17;;;16.60;99.90;;;;;;4989036;28;20181;-94
2022/07/12 06:10:19;;;;;;;7.37;6.70;;;17.00;99.90;;;;;;5015700;28;20463;-91
2022/07/12 06:12:59;;;;;;;6.10;5.57;;;16.80;99.90;;;;;;4987206;28;20957;-94
2022/07/12 06:15:27;;;;;;;6.30;5.90;;;16.80;99.90;;;;;;5005517;28;20965;-95
2022/07/12 06:17:53;;;;;;;6.27;5.77;;;16.90;99.90;;;;;;4992624;28;20474;-92
2022/07/12 06:20:19;;;;;;;5.60;5.10;;;16.90;99.90;;;;;;4988138;28;20448;-91
2022/07/12 06:22:44;;;;;;;5.50;5.10;;;17.10;99.90;;;;;;4981029;28;20181;-96
2022/07/12 06:25:10;;;;;;;5.03;4.63;;;17.50;99.90;;;;;;4986517;28;20307;-94
2022/07/12 06:27:39;;;;;;;5.53;5.13;;;17.30;99.90;;;;;;5004068;28;20201;-94
2022/07/12 06:30:05;;;;;;;5.43;5.03;;;17.40;99.90;;;;;;5022260;28;20451;-94
2022/07/12 06:32:30;;;;;;;5.00;4.60;;;17.50;99.90;;;;;;4984285;28;20479;-89
2022/07/12 06:35:02;;;;;;;4.90;4.50;;;17.60;99.90;;;;;;4985170;28;20972;-92
2022/07/12 06:40:38;;;;;;;4.30;4.00;;;17.80;99.90;;;;;;4999653;28;20467;-88
2022/07/12 06:43:09;;;;;;;3.30;3.10;;;17.70;99.90;;;;;;4980550;28;20444;-87
2022/07/12 06:45:35;;;;;;;3.53;3.23;;;17.80;99.90;;;;;;4982580;28;20276;-86
2022/07/12 06:48:00;;;;;;;3.67;3.37;;;18.10;99.90;;;;;;4983714;28;20527;-87
2022/07/12 06:50:26;;;;;;;2.90;2.57;;;18.10;99.90;;;;;;4977838;28;21078;-87
2022/07/12 06:52:52;;;;;;;3.00;2.80;;;18.10;99.90;;;;;;4974978;28;20452;-86
2022/07/12 06:55:17;;;;;;;2.73;2.53;;;18.20;99.90;;;;;;4990192;28;20187;-86
2022/07/12 06:57:43;;;;;;;2.57;2.40;;;18.20;99.90;;;;;;4976215;28;20929;-86
2022/07/12 07:00:09;;;;;;;4.13;2.20;;;18.30;99.90;;;;;;5000262;28;22587;-86
2022/07/12 07:02:34;;;;;;;2.30;2.20;;;18.50;99.90;;;;;;4976286;28;20228;-85
2022/07/12 07:05:00;;;;;;;2.60;2.40;;;18.60;99.90;;;;;;4991143;28;20203;-85
2022/07/12 07:07:25;;;;;;;3.30;2.20;;;18.60;99.90;;;;;;4981496;28;20669;-86
2022/07/12 07:09:51;;;;;;;2.20;2.10;;;18.60;99.90;;;;;;4987867;28;20591;-84
2022/07/12 07:12:16;;;;;;;2.73;2.53;;;18.80;99.90;;;;;;4978881;28;21221;-84
2022/07/12 07:14:42;;;;;;;2.10;2.00;;;18.80;99.90;;;;;;4999816;28;20189;-88
2022/07/12 07:17:08;;;;;;;1.90;1.80;;;18.80;99.90;;;;;;4983941;28;21381;-84
2022/07/12 07:19:33;;;;;;;2.20;2.00;;;19.00;99.90;;;;;;4982507;28;20316;-83
2022/07/12 07:21:59;;;;;;;2.10;1.90;;;19.20;99.90;;;;;;4982315;28;20185;-84
2022/07/12 07:24:24;;;;;;;2.20;2.10;;;19.20;99.90;;;;;;4976469;28;20193;-84
2022/07/12 07:26:50;;;;;;;2.97;2.37;;;19.20;99.90;;;;;;4978252;28;20196;-85
2022/07/12 07:32:00;;;;;;;2.10;2.00;;;19.10;99.90;;;;;;4994982;28;20196;-85
2022/07/12 07:34:26;;;;;;;2.33;2.13;;;19.20;99.90;;;;;;4981944;28;20832;-85
2022/07/12 07:36:52;;;;;;;2.43;2.10;;;19.30;99.90;;;;;;4978016;28;20188;-86
2022/07/12 07:39:18;;;;;;;3.27;2.83;;;19.50;99.90;;;;;;4981900;28;20483;-84
2022/07/12 07:41:43;;;;;;;3.60;2.60;;;19.60;99.90;;;;;;4985324;28;20540;-86
2022/07/12 07:44:09;;;;;;;2.87;1.90;;;19.70;99.90;;;;;;4984293;28;20204;-86
2022/07/12 07:46:35;;;;;;;3.00;1.53;;;19.80;99.90;;;;;;4974194;28;20197;-87
2022/07/12 07:49:00;;;;;;;1.57;1.50;;;20.00;99.90;;;;;;4986549;28;20597;-86
2022/07/12 07:51:26;;;;;;;1.23;1.13;;;20.10;99.90;;;;;;4999070;28;20192;-84
2022/07/12 07:53:52;;;;;;;1.80;1.63;;;20.30;99.90;;;;;;4987900;28;20196;-85
2022/07/12 07:56:17;;;;;;;1.40;1.30;;;20.20;99.90;;;;;;4979563;28;20291;-86
2022/07/12 07:58:43;;;;;;;1.40;1.30;;;20.40;99.90;;;;;;4977457;28;20216;-86
2022/07/12 08:01:08;;;;;;;1.50;1.40;;;20.40;99.90;;;;;;4977412;28;20181;-84
2022/07/12 08:03:34;;;;;;;1.90;1.20;;;20.40;99.90;;;;;;4979582;28;20189;-90
2022/07/12 08:06:00;;;;;;;1.13;1.10;;;20.50;99.90;;;;;;4994222;28;20631;-90
2022/07/12 08:08:27;;;;;;;1.30;1.20;;;20.80;99.90;;;;;;4971862;28;20432;-89
2022/07/12 08:10:53;;;;;;;1.20;1.10;;;20.90;99.90;;;;;;4982906;28;20551;-90
2022/07/12 08:13:19;;;;;;;1.43;0.90;;;21.00;99.90;;;;;;4985297;28;20491;-90
2022/07/12 08:15:44;;;;;;;2.13;2.03;;;21.10;99.90;;;;;;5012804;28;20189;-91
2022/07/12 08:18:10;;;;;;;2.70;2.60;;;21.20;99.90;;;;;;4986791;28;20985;-92
2022/07/12 08:20:36;;;;;;;5.20;4.80;;;21.40;99.90;;;;;;4985208;28;20185;-91
2022/07/12 08:23:02;;;;;;;11.57;10.67;;;21.30;99.90;;;;;;4981400;28;20189;-91
2022/07/12 08:25:28;;;;;;;11.20;10.30;;;21.40;99.90;;;;;;4985063;28;20199;-91
2022/07/12 08:27:53;;;;;;;8.33;7.63;;;21.50;99.90;;;;;;4971469;28;20444;-90
2022/07/12 08:30:21;;;;;;;6.90;6.47;;;21.50;99.90;;;;;;4983603;28;20204;-90
2022/07/12 08:33:03;;;;;;;4.10;3.80;;;21.60;99.90;;;;;;4988210;28;20185;-89
2022/07/12 08:35:28;;;;;;;3.13;2.80;;;21.70;99.90;;;;;;4987837;28;20436;-89
2022/07/12 08:37:54;;;;;;;2.50;2.30;;;21.90;99.90;;;;;;5016488;28;21050;-89
2022/07/12 08:40:20;;;;;;;2.03;1.93;;;22.10;99.90;;;;;;4989417;28;20680;-89
2022/07/12 08:42:47;;;;;;;2.80;2.63;;;22.00;99.90;;;;;;4986850;28;20181;-90
2022/07/12 08:45:13;;;;;;;3.43;2.23;;;22.30;99.90;;;;;;4990352;28;20671;-89
2022/07/12 08:47:38;;;;;;;1.80;1.70;;;22.30;99.90;;;;;;4988615;28;20468;-90
2022/07/12 08:50:16;;;;;;;4.10;1.70;;;22.00;98.60;;;;;;4988006;28;20559;-90
2022/07/12 08:52:44;;;;;;;1.83;1.30;;;22.10;99.90;;;;;;4990665;28;20177;-90
2022/07/12 08:55:25;;;;;;;1.60;1.50;;;21.90;99.90;;;;;;4988460;28;20456;-90
2022/07/12 08:57:53;;;;;;;1.70;1.60;;;22.50;99.90;;;;;;4994584;28;20685;-89
2022/07/12 09:00:20;;;;;;;1.33;1.33;;;22.80;99.80;;;;;;5008101;28;20513;-88
2022/07/12 09:02:56;;;;;;;1.67;1.30;;;22.70;98.80;;;;;;5012813;28;20447;-90
2022/07/12 09:05:27;;;;;;;2.00;1.90;;;22.00;99.50;;;;;;5008095;28;20511;-89
2022/07/12 09:08:03;;;;;;;1.50;1.40;;;21.60;99.90;;;;;;5008013;28;20428;-90
2022/07/12 09:10:29;;;;;;;1.47;1.37;;;21.50;99.90;;;;;;4988544;28;20436;-90
2022/07/12 09:12:54;;;;;;;1.50;1.40;;;21.90;99.90;;;;;;4990055;28;20857;-90
2022/07/12 09:15:22;;;;;;;1.50;1.40;;;22.40;99.30;;;;;;4987679;28;20209;-90
2022/07/12 09:18:03;;;;;;;1.50;1.40;;;22.80;99.50;;;;;;4987551;28;20204;-91
2022/07/12 09:20:36;;;;;;;1.30;1.20;;;23.40;98.10;;;;;;4991657;28;20467;-90
2022/07/12 09:23:04;;;;;;;1.53;1.30;;;23.50;98.30;;;;;;4991344;28;20792;-90
2022/07/12 09:25:32;;;;;;;1.27;1.27;;;23.70;98.10;;;;;;4988536;28;20465;-91
2022/07/12 09:27:59;;;;;;;1.50;1.40;;;24.00;97.00;;;;;;4992744;28;20443;-91
2022/07/12 09:30:27;;;;;;;2.37;1.23;;;24.00;95.60;;;;;;4991472;28;20448;-90
2022/07/12 09:36:15;;;;;;;1.13;1.13;;;23.70;94.00;;;;;;5002707;28;20439;-90
2022/07/12 09:38:56;;;;;;;1.60;1.50;;;23.10;94.70;;;;;;5004575;28;20471;-90
2022/07/12 09:41:22;;;;;;;0.97;0.97;;;23.00;96.30;;;;;;4992429;28;20787;-90
2022/07/12 09:43:49;;;;;;;1.60;1.50;;;23.00;96.30;;;;;;4992578;28;20474;-90
2022/07/12 09:46:16;;;;;;;1.60;1.30;;;22.80;96.00;;;;;;4990024;28;20514;-90
2022/07/12 09:48:41;;;;;;;1.63;1.33;;;22.80;95.90;;;;;;4995121;28;20428;-90
2022/07/12 09:51:09;;;;;;;1.60;1.37;;;22.80;96.90;;;;;;4994096;28;20876;-90
2022/07/12 09:53:43;;;;;;;1.70;1.40;;;22.80;96.50;;;;;;4991105;28;20176;-90
2022/07/12 09:56:11;;;;;;;1.87;1.70;;;22.90;97.50;;;;;;4988556;28;20464;-90
2022/07/12 09:58:51;;;;;;;1.50;1.40;;;23.40;96.30;;;;;;4992026;28;20550;-90
2022/07/12 10:01:18;;;;;;;1.67;1.57;;;23.80;94.80;;;;;;4991393;28;20427;-90
2022/07/12 10:03:48;;;;;;;1.50;1.40;;;24.40;95.60;;;;;;4990379;28;20464;-90
2022/07/12 10:06:29;;;;;;;1.73;1.20;;;24.70;95.30;;;;;;4988781;28;20794;-91
2022/07/12 10:08:56;;;;;;;2.03;1.50;;;24.70;93.40;;;;;;4989708;28;21207;-90
2022/07/12 10:11:27;;;;;;;1.60;1.50;;;24.50;94.70;;;;;;4991980;28;20429;-90
2022/07/12 10:13:54;;;;;;;1.83;1.40;;;24.20;94.20;;;;;;4989832;28;20855;-90
2022/07/12 10:16:33;;;;;;;2.17;1.30;;;24.50;93.60;;;;;;4988485;28;20872;-90
2022/07/12 10:19:21;;;;;;;3.07;1.30;;;23.90;93.80;;;;;;4990356;28;21024;-89
2022/07/12 10:21:48;;;;;;;1.53;1.17;;;23.40;94.50;;;;;;5005670;28;21409;-89
2022/07/12 10:24:44;;;;;;;1.10;1.10;;;23.30;95.10;;;;;;4988243;28;21018;-89
2022/07/12 10:27:13;;;;;;;0.97;0.97;;;23.40;96.20;;;;;;5004659;28;20447;-90
2022/07/12 10:30:02;;;;;;;1.20;1.20;;;23.90;94.70;;;;;;5007540;28;20443;-88
2022/07/12 10:32:35;;;;;;;1.20;1.20;;;24.00;97.20;;;;;;4975528;28;20435;-89
2022/07/12 10:35:06;;;;;;;1.53;1.30;;;24.40;96.20;;;;;;4987571;28;20497;-89
2022/07/12 10:37:33;;;;;;;1.20;1.10;;;24.80;92.20;;;;;;4986827;28;20432;-88
2022/07/12 10:40:14;;;;;;;1.37;1.27;;;25.10;92.70;;;;;;4986302;28;20949;-88
2022/07/12 10:43:01;;;;;;;0.80;0.80;;;24.50;91.10;;;;;;4991508;28;20448;-88
2022/07/12 10:45:35;;;;;;;1.37;1.20;;;24.60;92.80;;;;;;4989701;28;20444;-89
2022/07/12 10:48:12;;;;;;;1.20;1.20;;;24.70;93.20;;;;;;4990413;28;20448;-90
2022/07/12 10:50:41;;;;;;;1.20;1.20;;;24.20;94.00;;;;;;5005102;28;20444;-91
2022/07/12 10:53:19;;;;;;;1.30;1.07;;;23.80;94.20;;;;;;4986953;28;20895;-90
2022/07/12 10:56:03;;;;;;;0.87;0.87;;;24.00;96.00;;;;;;5004804;28;20494;-91
2022/07/12 10:58:55;;;;;;;1.13;0.90;;;24.60;95.90;;;;;;5005953;28;20773;-94
2022/07/12 11:01:45;;;;;;;1.20;1.10;;;24.60;92.50;;;;;;4991485;28;20449;-90
2022/07/12 11:04:11;;;;;;;0.80;0.80;;;24.40;91.80;;;;;;5000928;28;20468;-93
2022/07/12 11:06:41;;;;;;;0.80;0.80;;;24.60;92.00;;;;;;4989636;28;20464;-92
2022/07/12 11:09:09;;;;;;;0.80;0.80;;;24.30;91.50;;;;;;4986861;28;20223;-93
2022/07/12 11:11:41;;;;;;;1.20;1.10;;;24.70;94.30;;;;;;4986696;28;20431;-92
2022/07/12 11:14:44;;;;;;;0.80;0.80;;;24.50;90.90;;;;;;4981333;28;20965;-92
2022/07/12 11:17:35;;;;;;;0.87;0.87;;;24.20;91.70;;;;;;4947805;28;20498;-92
2022/07/12 11:20:06;;;;;;;1.43;1.00;;;24.80;93.10;;;;;;4983952;28;20460;-90
2022/07/12 11:22:32;;;;;;;1.83;1.00;;;25.40;94.10;;;;;;5002734;28;20439;-90
2022/07/12 11:25:04;;;;;;;1.00;0.87;;;25.80;95.40;;;;;;4989450;28;20444;-91
2022/07/12 11:27:31;;;;;;;1.00;1.00;;;25.90;91.70;;;;;;5006332;28;20173;-92
2022/07/12 11:30:00;;;;;;;2.80;1.10;;;26.00;91.60;;;;;;4993094;28;20931;-91
2022/07/12 11:32:43;;;;;;;1.70;0.70;;;26.30;91.20;;;;;;4982998;28;20255;-91
2022/07/12 11:35:22;;;;;;;2.50;0.80;;;26.60;90.70;;;;;;4989246;28;20436;-92
2022/07/12 11:37:50;;;;;;;1.43;0.90;;;26.70;90.80;;;;;;4991370;28;20446;-91
2022/07/12 11:40:20;;;;;;;1.03;0.87;;;26.50;89.10;;;;;;5022044;28;20542;-91
2022/07/12 11:42:58;;;;;;;1.00;0.80;;;26.30;91.20;;;;;;4991937;28;20478;-91
2022/07/12 11:45:27;;;;;;;1.47;0.77;;;25.80;91.80;;;;;;5019889;28;21313;-91
2022/07/12 11:47:52;;;;;;;0.90;0.90;;;26.10;89.40;;;;;;4988071;28;20490;-91
2022/07/12 11:50:21;;;;;;;1.20;1.10;;;26.20;90.00;;;;;;4995873;28;20502;-93
2022/07/12 11:52:46;;;;;;;1.73;0.80;;;25.70;87.40;;;;;;4984250;28;20443;-92
2022/07/12 11:55:12;;;;;;;0.90;0.90;;;25.20;89.90;;;;;;4988124;28;20177;-89
2022/07/12 11:57:38;;;;;;;0.97;0.90;;;25.10;88.00;;;;;;5002949;28;20189;-90
2022/07/12 12:00:15;;;;;;;0.70;0.70;;;25.40;88.00;;;;;;4988836;28;20185;-91
2022/07/12 12:02:40;;;;;;;0.80;0.80;;;25.20;89.90;;;;;;4987151;28;20188;-92
2022/07/12 12:05:07;;;;;;;1.17;0.87;;;25.60;90.80;;;;;;4983645;28;20871;-90
2022/07/12 12:07:33;;;;;;;1.10;0.90;;;25.60;90.50;;;;;;4988444;28;20211;-92
2022/07/12 12:10:10;;;;;;;0.90;0.90;;;26.00;89.70;;;;;;4991515;28;20927;-92
2022/07/12 12:12:38;;;;;;;0.93;0.80;;;26.30;88.30;;;;;;4987513;28;20528;-92
2022/07/12 12:15:09;;;;;;;0.90;0.90;;;26.20;89.00;;;;;;4999974;28;20467;-92
2022/07/12 12:17:36;;;;;;;1.63;0.97;;;26.20;90.10;;;;;;4990525;28;20463;-92
2022/07/12 12:20:15;;;;;;;1.50;1.20;;;26.60;89.20;;;;;;4989499;28;20472;-91
2022/07/12 12:22:41;;;;;;;1.43;0.60;;;26.60;87.60;;;;;;5017301;28;20440;-92
2022/07/12 12:25:12;;;;;;;2.13;1.33;;;26.50;85.10;;;;;;5000964;28;20443;-92
2022/07/12 12:28:08;;;;;;;1.23;1.13;;;26.70;84.40;;;;;;4983791;28;20431;-91
2022/07/12 12:30:35;;;;;;;1.10;1.00;;;27.00;89.70;;;;;;4963116;28;20455;-95
2022/07/12 12:33:06;;;;;;;0.77;0.77;;;27.00;89.50;;;;;;5005903;28;20513;-95
2022/07/12 12:35:32;;;;;;;1.50;0.90;;;27.20;85.50;;;;;;4981345;28;20436;-94
2022/07/12 12:38:00;;;;;;;1.00;0.90;;;26.50;82.20;;;;;;4992743;28;20613;-94
2022/07/12 12:40:31;;;;;;;2.57;1.13;;;26.60;87.20;;;;;;4985049;28;20502;-95
2022/07/12 12:43:12;;;;;;;1.30;0.80;;;26.20;83.80;;;;;;4986456;28;20868;-94
2022/07/12 12:45:50;;;;;;;1.27;0.83;;;25.90;83.30;;;;;;4993920;28;20808;-94
2022/07/12 12:48:30;;;;;;;2.53;1.30;;;26.20;83.00;;;;;;4984397;28;20444;-94
2022/07/12 12:51:13;;;;;;;1.17;0.83;;;26.70;87.30;;;;;;4984493;28;20871;-93
2022/07/12 12:54:12;;;;;;;1.17;0.83;;;26.80;84.10;;;;;;4970458;28;20868;-92
2022/07/12 12:56:41;;;;;;;1.63;1.10;;;27.00;88.00;;;;;;4985515;28;20446;-90
2022/07/12 12:59:06;;;;;;;0.93;0.80;;;27.50;88.40;;;;;;4978424;28;20566;-91
2022/07/12 13:01:33;;;;;;;1.20;1.10;;;27.60;89.50;;;;;;4982221;28;21115;-92
2022/07/12 13:03:58;;;;;;;0.80;0.80;;;27.80;86.60;;;;;;4984769;28;20176;-96